createdAt,value
2022-11-16T00:01:08.398Z,100.00
2022-11-16T00:03:35.675Z,100.00
2022-11-16T00:06:05.670Z,100.00
2022-11-16T00:08:35.771Z,100.00
2022-11-16T00:11:13.286Z,100.00
2022-11-16T00:13:41.222Z,100.00
2022-11-16T00:16:09.120Z,100.00
2022-11-16T00:18:35.861Z,100.00
2022-11-16T00:21:04.327Z,100.00
2022-11-16T00:23:31.006Z,100.00
2022-11-16T00:26:03.910Z,100.00
2022-11-16T00:28:31.028Z,100.00
2022-11-16T00:31:02.642Z,100.00
2022-11-16T00:33:29.634Z,100.00
2022-11-16T00:35:56.634Z,100.00
2022-11-16T00:38:23.705Z,100.00
2022-11-16T00:40:50.318Z,100.00
2022-11-16T00:43:17.142Z,100.00
2022-11-16T00:45:44.108Z,100.00
2022-11-16T00:48:11.905Z,100.00
2022-11-16T00:50:39.221Z,100.00
2022-11-16T00:53:06.724Z,100.00
2022-11-16T00:55:34.093Z,100.00
2022-11-16T00:58:02.335Z,100.00
2022-11-16T01:00:29.296Z,100.00
2022-11-16T01:02:56.112Z,100.00
2022-11-16T01:05:24.364Z,100.00
2022-11-16T01:07:51.666Z,100.00
2022-11-16T01:10:22.172Z,100.00
2022-11-16T01:12:50.825Z,100.00
2022-11-16T01:15:19.881Z,100.00
2022-11-16T01:17:46.808Z,100.00
2022-11-16T01:20:16.544Z,100.00
2022-11-16T01:22:44.120Z,100.00
2022-11-16T01:25:12.545Z,100.00
2022-11-16T01:27:40.264Z,100.00
2022-11-16T01:30:13.959Z,100.00
2022-11-16T01:32:45.524Z,100.00
2022-11-16T01:35:17.336Z,100.00
2022-11-16T01:37:44.676Z,100.00
2022-11-16T01:40:14.134Z,100.00
2022-11-16T01:42:42.828Z,100.00
2022-11-16T01:45:34.047Z,100.00
2022-11-16T01:48:02.154Z,100.00
2022-11-16T01:50:32.254Z,100.00
2022-11-16T01:53:02.300Z,100.00
2022-11-16T01:55:36.946Z,100.00
2022-11-16T01:58:19.220Z,100.00
2022-11-16T02:00:49.626Z,100.00
2022-11-16T02:03:29.239Z,100.00
2022-11-16T02:06:27.213Z,100.00
2022-11-16T02:09:37.181Z,100.00
2022-11-16T02:12:27.204Z,100.00
2022-11-16T02:15:03.521Z,100.00
2022-11-16T02:17:52.269Z,100.00
2022-11-16T02:20:43.831Z,100.00
2022-11-16T02:23:25.753Z,100.00
2022-11-16T02:26:17.162Z,100.00
2022-11-16T02:29:10.048Z,100.00
2022-11-16T02:31:41.178Z,100.00
2022-11-16T02:34:11.271Z,100.00
2022-11-16T02:36:41.740Z,100.00
2022-11-16T02:39:14.761Z,100.00
2022-11-16T02:41:44.352Z,100.00
2022-11-16T02:44:18.269Z,100.00
2022-11-16T02:46:48.787Z,100.00
2022-11-16T02:49:23.180Z,100.00
2022-11-16T02:51:52.739Z,100.00
2022-11-16T02:54:22.510Z,100.00
2022-11-16T02:57:04.256Z,100.00
2022-11-16T02:59:44.360Z,100.00
2022-11-16T03:02:17.185Z,100.00
2022-11-16T03:04:49.049Z,100.00
2022-11-16T03:07:22.897Z,100.00
2022-11-16T03:09:51.705Z,100.00
2022-11-16T03:12:22.504Z,100.00
2022-11-16T03:15:01.501Z,100.00
2022-11-16T03:17:40.300Z,100.00
2022-11-16T03:20:17.783Z,100.00
2022-11-16T03:22:47.486Z,100.00
2022-11-16T03:25:18.426Z,100.00
2022-11-16T03:27:58.353Z,100.00
2022-11-16T03:30:28.893Z,100.00
2022-11-16T03:33:04.373Z,100.00
2022-11-16T03:35:38.727Z,100.00
2022-11-16T03:38:08.319Z,100.00
2022-11-16T03:40:38.473Z,100.00
2022-11-16T03:43:07.142Z,100.00
2022-11-16T03:45:35.709Z,100.00
2022-11-16T03:48:06.230Z,100.00
2022-11-16T03:50:33.493Z,100.00
2022-11-16T03:53:02.004Z,100.00
2022-11-16T03:55:29.278Z,100.00
2022-11-16T03:57:56.034Z,100.00
2022-11-16T04:00:24.014Z,100.00
2022-11-16T04:02:52.988Z,100.00
2022-11-16T04:05:40.403Z,100.00
2022-11-16T04:08:33.267Z,100.00
2022-11-16T04:11:18.924Z,100.00
2022-11-16T04:14:20.080Z,100.00
2022-11-16T04:17:05.385Z,100.00
2022-11-16T04:19:55.296Z,100.00
2022-11-16T04:22:50.885Z,100.00
2022-11-16T04:25:24.275Z,100.00
2022-11-16T04:28:11.142Z,100.00
2022-11-16T04:30:56.361Z,100.00
2022-11-16T04:33:41.868Z,100.00
2022-11-16T04:36:27.653Z,100.00
2022-11-16T04:38:54.497Z,100.00
2022-11-16T04:41:39.863Z,100.00
2022-11-16T04:44:06.686Z,100.00
2022-11-16T04:46:52.975Z,100.00
2022-11-16T04:49:20.324Z,100.00
2022-11-16T04:51:47.764Z,100.00
2022-11-16T04:54:14.892Z,100.00
2022-11-16T04:56:41.784Z,100.00
2022-11-16T04:59:08.649Z,100.00
2022-11-16T05:01:53.888Z,100.00
2022-11-16T05:04:20.767Z,100.00
2022-11-16T05:06:48.068Z,100.00
2022-11-16T05:09:14.903Z,100.00
2022-11-16T05:11:41.815Z,100.00
2022-11-16T05:14:10.201Z,100.00
2022-11-16T05:16:38.519Z,100.00
2022-11-16T05:19:23.884Z,100.00
2022-11-16T05:21:50.618Z,100.00
2022-11-16T05:24:35.879Z,100.00
2022-11-16T05:27:10.049Z,100.00
2022-11-16T05:29:37.999Z,100.00
2022-11-16T05:32:05.990Z,100.00
2022-11-16T05:34:33.576Z,100.00
2022-11-16T05:37:01.157Z,100.00
2022-11-16T05:39:29.258Z,100.00
2022-11-16T05:41:57.169Z,100.00
2022-11-16T05:44:24.738Z,100.00
2022-11-16T05:46:52.431Z,100.00
2022-11-16T05:49:19.694Z,100.00
2022-11-16T05:51:47.359Z,100.00
2022-11-16T05:54:24.740Z,100.00
2022-11-16T05:56:52.511Z,100.00
2022-11-16T05:59:22.668Z,100.00
2022-11-16T06:01:52.997Z,100.00
2022-11-16T06:04:24.611Z,100.00
2022-11-16T06:06:53.654Z,100.00
2022-11-16T06:09:20.318Z,100.00
2022-11-16T06:11:49.082Z,100.00
2022-11-16T06:14:16.187Z,100.00
2022-11-16T06:16:43.497Z,100.00
2022-11-16T06:19:10.897Z,100.00
2022-11-16T06:21:37.814Z,100.00
2022-11-16T06:24:09.396Z,100.00
2022-11-16T06:26:37.198Z,100.00
2022-11-16T06:29:04.539Z,100.00
2022-11-16T06:31:34.029Z,100.00
2022-11-16T06:34:02.572Z,100.00
2022-11-16T06:36:29.973Z,100.00
2022-11-16T06:39:00.858Z,100.00
2022-11-16T06:41:29.608Z,100.00
2022-11-16T06:43:56.513Z,100.00
2022-11-16T06:46:29.913Z,100.00
2022-11-16T06:48:57.310Z,100.00
2022-11-16T06:51:23.884Z,100.00
2022-11-16T06:53:50.685Z,100.00
2022-11-16T06:56:18.467Z,100.00
2022-11-16T06:58:57.288Z,100.00
2022-11-16T07:01:26.439Z,100.00
2022-11-16T07:03:58.756Z,100.00
2022-11-16T07:06:26.890Z,100.00
2022-11-16T07:08:54.684Z,100.00
2022-11-16T07:11:25.326Z,100.00
2022-11-16T07:13:52.419Z,100.00
2022-11-16T07:16:19.016Z,100.00
2022-11-16T07:18:52.855Z,100.00
2022-11-16T07:21:19.690Z,100.00
2022-11-16T07:23:46.389Z,100.00
2022-11-16T07:26:18.330Z,100.00
2022-11-16T07:28:50.900Z,100.00
2022-11-16T07:31:20.943Z,100.00
2022-11-16T07:34:04.925Z,100.00
2022-11-16T07:36:46.834Z,100.00
2022-11-16T07:39:13.725Z,100.00
2022-11-16T07:41:45.074Z,100.00
2022-11-16T07:44:23.003Z,100.00
2022-11-16T07:47:01.830Z,100.00
2022-11-16T07:49:31.234Z,100.00
2022-11-16T07:52:04.085Z,100.00
2022-11-16T07:54:44.082Z,100.00
2022-11-16T07:57:10.925Z,100.00
2022-11-16T07:59:40.530Z,100.00
2022-11-16T08:02:08.920Z,100.00
2022-11-16T08:04:38.707Z,100.00
2022-11-16T08:07:05.973Z,100.00
2022-11-16T08:09:39.436Z,100.00
2022-11-16T08:12:08.395Z,100.00
2022-11-16T08:14:35.149Z,100.00
2022-11-16T08:17:03.728Z,100.00
2022-11-16T08:19:30.623Z,100.00
2022-11-16T08:21:58.003Z,100.00
2022-11-16T08:24:28.230Z,100.00
2022-11-16T08:26:55.110Z,100.00
2022-11-16T08:29:21.713Z,100.00
2022-11-16T08:31:50.675Z,100.00
2022-11-16T08:34:19.693Z,100.00
2022-11-16T08:36:50.778Z,100.00
2022-11-16T08:39:20.824Z,100.00
2022-11-16T08:41:47.674Z,100.00
2022-11-16T08:44:15.712Z,100.00
2022-11-16T08:46:45.987Z,100.00
2022-11-16T08:49:22.329Z,100.00
2022-11-16T08:51:49.052Z,100.00
2022-11-16T08:54:15.749Z,100.00
2022-11-16T08:56:43.539Z,100.00
2022-11-16T08:59:11.244Z,100.00
2022-11-16T09:01:42.595Z,100.00
2022-11-16T09:04:09.323Z,100.00
2022-11-16T09:06:36.644Z,100.00
2022-11-16T09:09:03.739Z,100.00
2022-11-16T09:11:30.635Z,100.00
2022-11-16T09:13:57.250Z,100.00
2022-11-16T09:16:24.394Z,99.77
2022-11-16T09:18:52.294Z,99.39
2022-11-16T09:21:21.079Z,99.16
2022-11-16T09:23:48.518Z,99.17
2022-11-16T09:26:15.536Z,99.47
2022-11-16T09:28:42.683Z,98.18
2022-11-16T09:31:10.191Z,98.16
2022-11-16T09:33:37.424Z,97.30
2022-11-16T09:36:07.224Z,95.18
2022-11-16T09:41:35.150Z,98.32
2022-11-16T09:44:28.900Z,98.86
2022-11-16T09:47:00.426Z,99.22
2022-11-16T09:49:42.422Z,99.14
2022-11-16T09:52:18.755Z,100.00
2022-11-16T09:54:47.347Z,100.00
2022-11-16T09:57:18.913Z,100.00
2022-11-16T09:59:49.805Z,100.00
2022-11-16T10:02:32.282Z,100.00
2022-11-16T10:05:04.676Z,99.91
2022-11-16T10:07:44.640Z,98.66
2022-11-16T10:10:16.732Z,98.83
2022-11-16T10:12:52.063Z,98.11
2022-11-16T10:15:40.265Z,97.39
2022-11-16T10:18:15.917Z,96.58
2022-11-16T10:21:04.576Z,96.14
2022-11-16T10:23:55.287Z,96.32
2022-11-16T10:26:49.385Z,95.48
2022-11-16T10:29:21.877Z,94.91
2022-11-16T10:32:06.600Z,93.93
2022-11-16T10:34:50.839Z,92.25
2022-11-16T10:37:17.630Z,93.61
2022-11-16T10:39:48.734Z,93.59
2022-11-16T10:42:39.268Z,93.58
2022-11-16T10:45:20.669Z,92.41
2022-11-16T10:47:58.225Z,92.57
2022-11-16T10:50:46.890Z,90.06
2022-11-16T10:53:16.024Z,90.30
2022-11-16T10:55:42.703Z,90.80
2022-11-16T10:58:09.521Z,91.14
2022-11-16T11:00:49.095Z,92.52
2022-11-16T11:03:30.326Z,91.43
2022-11-16T11:05:57.340Z,92.34
2022-11-16T11:08:32.891Z,88.82
2022-11-16T11:11:23.716Z,88.91
2022-11-16T11:14:04.970Z,89.20
2022-11-16T11:16:32.689Z,88.74
2022-11-16T11:19:23.703Z,87.71
2022-11-16T11:21:50.631Z,87.60
2022-11-16T11:24:43.393Z,86.78
2022-11-16T11:27:05.460Z,87.04
2022-11-16T11:29:37.529Z,85.15
2022-11-16T11:32:08.025Z,84.88
2022-11-16T11:34:47.341Z,86.83
2022-11-16T11:37:18.219Z,87.64
2022-11-16T11:39:45.341Z,87.63
2022-11-16T11:42:14.908Z,85.78
2022-11-16T11:44:50.485Z,87.26
2022-11-16T11:47:55.488Z,86.42
2022-11-16T11:50:13.330Z,86.77
2022-11-16T11:52:49.910Z,84.38
2022-11-16T11:55:18.720Z,85.61
2022-11-16T11:57:49.222Z,85.93
2022-11-16T12:00:18.076Z,82.92
2022-11-16T12:03:03.299Z,83.58
2022-11-16T12:06:21.300Z,85.24
2022-11-16T12:08:59.823Z,85.93
2022-11-16T12:11:43.879Z,84.64
2022-11-16T12:14:28.172Z,86.93
2022-11-16T12:17:27.327Z,83.42
2022-11-16T12:20:19.223Z,82.43
2022-11-16T12:23:03.983Z,83.53
2022-11-16T12:25:36.233Z,84.51
2022-11-16T12:28:37.950Z,81.71
2022-11-16T12:31:22.721Z,82.02
2022-11-16T12:34:09.884Z,81.78
2022-11-16T12:36:58.152Z,81.61
2022-11-16T12:39:34.347Z,81.89
2022-11-16T12:42:16.182Z,82.13
2022-11-16T12:44:45.644Z,82.69
2022-11-16T12:47:40.707Z,81.75
2022-11-16T12:50:26.804Z,81.58
2022-11-16T12:52:56.129Z,78.11
2022-11-16T12:55:27.103Z,80.16
2022-11-16T12:58:22.187Z,79.34
2022-11-16T13:01:09.870Z,80.81
2022-11-16T13:03:51.826Z,80.61
2022-11-16T13:06:26.457Z,84.91
2022-11-16T13:09:01.645Z,83.02
2022-11-16T13:12:06.446Z,84.22
2022-11-16T13:14:43.460Z,83.99
2022-11-16T13:17:17.984Z,84.51
2022-11-16T13:20:11.678Z,85.05
2022-11-16T13:22:54.540Z,85.83
2022-11-16T13:25:29.160Z,85.47
2022-11-16T13:28:12.651Z,85.71
2022-11-16T13:31:20.630Z,84.58
2022-11-16T13:33:51.348Z,84.28
2022-11-16T13:36:45.545Z,83.18
2022-11-16T13:39:22.205Z,84.07
2022-11-16T13:42:05.566Z,84.14
2022-11-16T13:44:33.455Z,81.06
2022-11-16T13:47:06.689Z,81.47
2022-11-16T13:49:50.926Z,82.05
2022-11-16T13:52:23.584Z,80.44
2022-11-16T13:54:54.447Z,80.95
2022-11-16T13:57:24.805Z,81.53
2022-11-16T14:00:00.628Z,81.50
2022-11-16T14:02:34.169Z,80.15
2022-11-16T14:05:06.709Z,79.10
2022-11-16T14:07:43.003Z,80.30
2022-11-16T14:10:31.001Z,79.07
2022-11-16T14:12:58.478Z,78.48
2022-11-16T14:15:31.030Z,77.68
2022-11-16T14:18:03.897Z,77.84
2022-11-16T14:20:55.932Z,79.21
2022-11-16T14:23:37.578Z,78.92
2022-11-16T14:26:21.514Z,78.81
2022-11-16T14:29:10.388Z,79.29
2022-11-16T14:31:57.476Z,78.15
2022-11-16T14:34:45.953Z,78.03
2022-11-16T14:37:21.704Z,78.55
2022-11-16T14:39:57.734Z,78.25
2022-11-16T14:42:27.177Z,77.89
2022-11-16T14:45:04.814Z,79.58
2022-11-16T14:47:36.440Z,79.89
2022-11-16T14:50:03.596Z,79.75
2022-11-16T14:52:39.622Z,80.58
2022-11-16T14:55:17.114Z,81.07
2022-11-16T14:57:43.881Z,81.35
2022-11-16T15:00:25.701Z,81.77
2022-11-16T15:03:00.915Z,82.46
2022-11-16T15:05:34.472Z,83.77
2022-11-16T15:08:03.508Z,83.81
2022-11-16T15:10:30.114Z,84.01
2022-11-16T15:12:57.743Z,84.87
2022-11-16T15:15:27.572Z,85.82
2022-11-16T15:18:00.495Z,85.93
2022-11-16T15:20:29.608Z,86.62
2022-11-16T15:23:01.288Z,87.03
2022-11-16T15:25:42.942Z,86.81
2022-11-16T15:28:26.027Z,87.47
2022-11-16T15:31:01.458Z,87.75
2022-11-16T15:33:29.786Z,87.95
2022-11-16T15:35:56.697Z,87.91
2022-11-16T15:38:29.924Z,88.39
2022-11-16T15:41:01.602Z,89.26
2022-11-16T15:43:32.992Z,89.05
2022-11-16T15:46:01.526Z,89.22
2022-11-16T15:48:29.308Z,88.72
2022-11-16T15:51:15.837Z,89.11
2022-11-16T15:53:50.874Z,90.17
2022-11-16T15:56:26.473Z,90.88
2022-11-16T15:58:54.234Z,90.69
2022-11-16T16:01:22.173Z,90.13
2022-11-16T16:03:59.176Z,89.50
2022-11-16T16:06:51.480Z,90.05
2022-11-16T16:09:27.179Z,90.24
2022-11-16T16:11:54.811Z,90.32
2022-11-16T16:14:29.576Z,90.11
2022-11-16T16:16:58.597Z,90.08
2022-11-16T16:19:41.861Z,90.36
2022-11-16T16:22:27.403Z,90.70
2022-11-16T16:24:54.853Z,90.18
2022-11-16T16:27:23.843Z,90.27
2022-11-16T16:29:52.692Z,89.32
2022-11-16T16:32:29.597Z,89.24
2022-11-16T16:35:01.281Z,88.60
2022-11-16T16:37:30.341Z,88.01
2022-11-16T16:39:57.648Z,87.21
2022-11-16T16:42:24.958Z,87.74
2022-11-16T16:44:52.084Z,88.93
2022-11-16T16:47:22.855Z,89.79
2022-11-16T16:49:49.846Z,88.52
2022-11-16T16:52:16.848Z,88.54
2022-11-16T16:54:43.609Z,88.59
2022-11-16T16:57:15.021Z,88.38
2022-11-16T16:59:43.917Z,89.04
2022-11-16T17:02:14.559Z,87.79
2022-11-16T17:04:41.426Z,87.32
2022-11-16T17:07:08.029Z,87.83
2022-11-16T17:09:34.735Z,87.85
2022-11-16T17:12:01.275Z,88.76
2022-11-16T17:14:27.899Z,88.92
2022-11-16T17:16:54.505Z,88.60
2022-11-16T17:19:22.045Z,88.01
2022-11-16T17:21:48.882Z,87.72
2022-11-16T17:24:15.548Z,87.87
2022-11-16T17:26:42.436Z,88.75
2022-11-16T17:29:09.075Z,88.53
2022-11-16T17:31:36.269Z,86.92
2022-11-16T17:34:03.066Z,86.36
2022-11-16T17:36:29.646Z,87.25
2022-11-16T17:38:56.409Z,87.45
2022-11-16T17:41:22.991Z,87.63
2022-11-16T17:43:53.026Z,86.70
2022-11-16T17:46:21.699Z,85.84
2022-11-16T17:48:49.398Z,86.86
2022-11-16T17:51:22.094Z,85.93
2022-11-16T17:53:49.831Z,86.07
2022-11-16T17:56:21.705Z,87.42
2022-11-16T17:58:50.289Z,87.24
2022-11-16T18:01:19.824Z,87.58
2022-11-16T18:03:46.478Z,89.06
2022-11-16T18:06:16.156Z,90.01
2022-11-16T18:08:43.766Z,89.17
2022-11-16T18:11:16.380Z,89.06
2022-11-16T18:13:43.687Z,89.28
2022-11-16T18:16:11.456Z,89.87
2022-11-16T18:18:39.188Z,90.64
2022-11-16T18:21:07.412Z,90.32
2022-11-16T18:23:35.721Z,90.30
2022-11-16T18:26:07.852Z,90.61
2022-11-16T18:28:34.890Z,90.31
2022-11-16T18:31:06.885Z,91.06
2022-11-16T18:33:35.711Z,91.96
2022-11-16T18:36:03.895Z,92.05
2022-11-16T18:38:31.150Z,91.65
2022-11-16T18:41:11.429Z,91.85
2022-11-16T18:43:51.871Z,91.97
2022-11-16T18:46:19.974Z,92.11
2022-11-16T18:48:46.956Z,92.29
2022-11-16T18:51:15.648Z,92.22
2022-11-16T18:53:42.485Z,92.07
2022-11-16T18:56:09.778Z,92.06
2022-11-16T18:58:49.786Z,92.17
2022-11-16T19:01:19.506Z,92.17
2022-11-16T19:03:46.198Z,92.46
2022-11-16T19:06:14.799Z,92.41
2022-11-16T19:08:42.481Z,92.55
2022-11-16T19:11:12.299Z,92.44
2022-11-16T19:13:40.428Z,92.60
2022-11-16T19:16:08.276Z,92.44
2022-11-16T19:18:35.894Z,92.93
2022-11-16T19:21:08.169Z,92.63
2022-11-16T19:23:40.081Z,92.63
2022-11-16T19:26:07.121Z,92.38
2022-11-16T19:28:37.806Z,92.53
2022-11-16T19:31:16.664Z,92.13
2022-11-16T19:33:44.606Z,92.35
2022-11-16T19:36:14.234Z,92.66
2022-11-16T19:38:41.579Z,92.65
2022-11-16T19:41:10.212Z,92.09
2022-11-16T19:43:37.248Z,92.27
2022-11-16T19:46:16.605Z,92.44
2022-11-16T19:49:28.174Z,92.96
2022-11-16T19:52:55.746Z,92.63
2022-11-16T19:55:57.099Z,92.24
2022-11-16T19:59:36.462Z,93.08
2022-11-16T20:03:04.009Z,92.69
2022-11-16T20:06:07.535Z,92.00
2022-11-16T20:09:14.487Z,92.21
2022-11-16T20:12:13.165Z,92.65
2022-11-16T20:15:12.261Z,93.07
2022-11-16T20:18:31.470Z,93.47
2022-11-16T20:21:22.093Z,92.93
2022-11-16T20:24:06.321Z,92.51
2022-11-16T20:27:11.212Z,92.78
2022-11-16T20:29:50.768Z,93.15
2022-11-16T20:32:44.196Z,91.41
2022-11-16T20:35:23.943Z,91.40
2022-11-16T20:37:57.916Z,91.80
2022-11-16T20:40:44.271Z,91.64
2022-11-16T20:43:21.184Z,90.43
2022-11-16T20:46:02.975Z,90.86
2022-11-16T20:48:40.441Z,91.37
2022-11-16T20:51:38.357Z,91.66
2022-11-16T20:54:24.308Z,92.07
2022-11-16T20:57:08.763Z,92.14
2022-11-16T21:00:13.644Z,91.59
2022-11-16T21:02:47.980Z,90.12
2022-11-16T21:06:12.698Z,87.58
2022-11-16T21:09:26.034Z,86.54
2022-11-16T21:12:44.015Z,87.69
2022-11-16T21:15:40.414Z,89.31
2022-11-16T21:18:26.491Z,89.01
2022-11-16T21:21:15.943Z,87.70
2022-11-16T21:23:58.467Z,86.83
2022-11-16T21:26:43.995Z,87.07
2022-11-16T21:29:58.844Z,86.52
2022-11-16T21:32:26.507Z,86.23
2022-11-16T21:35:04.994Z,86.92
2022-11-16T21:37:57.189Z,86.54
2022-11-16T21:40:40.797Z,87.60
2022-11-16T21:43:48.403Z,87.93
2022-11-16T21:46:28.385Z,87.63
2022-11-16T21:49:24.506Z,87.49
2022-11-16T21:51:59.048Z,88.17
2022-11-16T21:54:50.995Z,87.69
2022-11-16T21:57:27.549Z,87.55
2022-11-16T22:00:23.045Z,87.75
2022-11-16T22:03:11.122Z,88.97
2022-11-16T22:06:20.554Z,88.69
2022-11-16T22:09:01.334Z,89.14
2022-11-16T22:12:04.971Z,89.46
2022-11-16T22:14:50.130Z,89.88
2022-11-16T22:17:36.725Z,90.06
2022-11-16T22:20:43.309Z,89.61
2022-11-16T22:23:35.027Z,89.49
2022-11-16T22:26:23.903Z,90.13
2022-11-16T22:29:28.077Z,90.56
2022-11-16T22:32:07.001Z,90.94
2022-11-16T22:34:52.027Z,91.26
2022-11-16T22:37:40.674Z,91.24
2022-11-16T22:40:41.964Z,91.76
2022-11-16T22:43:26.456Z,90.76
2022-11-16T22:46:08.065Z,91.46
2022-11-16T22:48:47.863Z,90.92
2022-11-16T22:51:34.615Z,91.01
2022-11-16T22:54:11.922Z,91.06
2022-11-16T22:56:46.420Z,90.80
2022-11-16T22:59:17.035Z,90.83
2022-11-16T23:02:05.778Z,90.33
2022-11-16T23:04:50.922Z,89.10
2022-11-16T23:07:28.090Z,89.20
2022-11-16T23:10:54.363Z,88.99
2022-11-16T23:13:50.421Z,88.88
2022-11-16T23:16:29.104Z,88.93
2022-11-16T23:19:22.676Z,88.04
2022-11-16T23:22:22.044Z,86.28
2022-11-16T23:25:14.110Z,86.96
2022-11-16T23:28:27.472Z,88.21
2022-11-16T23:31:18.769Z,86.30
2022-11-16T23:34:07.306Z,85.66
2022-11-16T23:36:52.454Z,84.95
2022-11-16T23:39:38.059Z,85.41
2022-11-16T23:42:35.700Z,86.73
2022-11-16T23:45:09.089Z,86.41
2022-11-16T23:47:45.384Z,85.99
2022-11-16T23:50:18.923Z,85.05
2022-11-16T23:52:46.437Z,83.84
2022-11-16T23:55:38.237Z,83.32
2022-11-16T23:58:14.873Z,84.24
